RYR1JG EGPH-EGNT
Flight info
| Callsign | RYR1JG |
|---|---|
| Flight time | N/A |
| Altitude | 21000 |
| Route | TLA Y96 NATEB |
| Aircraft | B738/M-SDE3FGILRWY/SB1 |
Departure
| Time | 2026-04-20 21:08 |
|---|---|
| Airport | Edinburgh Airport (EGPH) |
Arrival
| Time | N/A |
|---|---|
| Airport | Newcastle International Airport (EGNT) |
| Time | Latitude | Longitude | Altitude | Speed | Heading |
|---|---|---|---|---|---|
| 2026-04-20 20:49 | 55.94571 | -3.36629 | 115 ft | 0 kts | 89° |
| 2026-04-20 21:00 | 55.94572 | -3.36654 | 114 ft | 4 kts | 96° |
| 2026-04-20 21:00 | 55.94576 | -3.36702 | 114 ft | 4 kts | 97° |
| 2026-04-20 21:00 | 55.94578 | -3.36732 | 114 ft | 4 kts | 17° |
| 2026-04-20 21:01 | 55.94577 | -3.36733 | 114 ft | 0 kts | 358° |
| 2026-04-20 21:02 | 55.94637 | -3.36736 | 115 ft | 15 kts | 359° |
| 2026-04-20 21:03 | 55.94741 | -3.36741 | 115 ft | 9 kts | 347° |
| 2026-04-20 21:03 | 55.94803 | -3.36776 | 115 ft | 10 kts | 358° |
| 2026-04-20 21:03 | 55.94876 | -3.36787 | 115 ft | 11 kts | 342° |
| 2026-04-20 21:03 | 55.94927 | -3.36877 | 115 ft | 11 kts | 273° |
| 2026-04-20 21:04 | 55.94902 | -3.36974 | 114 ft | 12 kts | 237° |
| 2026-04-20 21:04 | 55.94857 | -3.37097 | 115 ft | 13 kts | 239° |
| 2026-04-20 21:04 | 55.94815 | -3.37221 | 115 ft | 14 kts | 239° |
| 2026-04-20 21:04 | 55.94753 | -3.37408 | 114 ft | 26 kts | 239° |
| 2026-04-20 21:05 | 55.94646 | -3.37721 | 115 ft | 25 kts | 238° |
| 2026-04-20 21:05 | 55.94594 | -3.37874 | 115 ft | 11 kts | 242° |
| 2026-04-20 21:05 | 55.94616 | -3.37975 | 113 ft | 7 kts | 327° |
| 2026-04-20 21:05 | 55.94620 | -3.37979 | 111 ft | 0 kts | 327° |
| 2026-04-20 21:06 | 55.94628 | -3.37989 | 113 ft | 7 kts | 328° |
| 2026-04-20 21:07 | 55.94691 | -3.38055 | 112 ft | 10 kts | 340° |
| 2026-04-20 21:07 | 55.94746 | -3.37998 | 114 ft | 9 kts | 57° |
| 2026-04-20 21:07 | 55.94750 | -3.37985 | 112 ft | 0 kts | 58° |
| 2026-04-20 21:07 | 55.94790 | -3.37868 | 115 ft | 53 kts | 59° |
| 2026-04-20 21:08 | 55.95202 | -3.36639 | 257 ft | 168 kts | 60° |
| 2026-04-20 21:08 | 55.95781 | -3.34888 | 1209 ft | 165 kts | 58° |
| 2026-04-20 21:08 | 55.96549 | -3.33156 | 2087 ft | 184 kts | 50° |
| 2026-04-20 21:08 | 55.97529 | -3.31526 | 2635 ft | 203 kts | 41° |
| 2026-04-20 21:09 | 55.98773 | -3.29979 | 3156 ft | 233 kts | 33° |
| 2026-04-20 21:09 | 56.00264 | -3.28588 | 3656 ft | 247 kts | 26° |
| 2026-04-20 21:09 | 56.01861 | -3.27515 | 4123 ft | 252 kts | 20° |
| 2026-04-20 21:09 | 56.03568 | -3.26773 | 4589 ft | 254 kts | 13° |
| 2026-04-20 21:10 | 56.05328 | -3.26360 | 5070 ft | 255 kts | 12° |
| 2026-04-20 21:10 | 56.06879 | -3.24995 | 5512 ft | 251 kts | 48° |
| 2026-04-20 21:10 | 56.07611 | -3.22234 | 5985 ft | 250 kts | 84° |
| 2026-04-20 21:10 | 56.07376 | -3.19154 | 6494 ft | 252 kts | 100° |
| 2026-04-20 21:11 | 56.07160 | -3.16028 | 6970 ft | 255 kts | 95° |
| 2026-04-20 21:11 | 56.06845 | -3.12897 | 7395 ft | 259 kts | 112° |
| 2026-04-20 21:11 | 56.05718 | -3.10393 | 7871 ft | 263 kts | 138° |
| 2026-04-20 21:11 | 56.04284 | -3.08414 | 8342 ft | 264 kts | 141° |
| 2026-04-20 21:12 | 56.02810 | -3.06437 | 8804 ft | 265 kts | 141° |
| 2026-04-20 21:12 | 56.01333 | -3.04443 | 9284 ft | 266 kts | 141° |
| 2026-04-20 21:12 | 55.99857 | -3.02436 | 9769 ft | 266 kts | 141° |
| 2026-04-20 21:12 | 55.98380 | -3.00423 | 10263 ft | 267 kts | 141° |
| 2026-04-20 21:13 | 55.96709 | -2.98974 | 10685 ft | 273 kts | 166° |
| 2026-04-20 21:13 | 55.94802 | -2.98995 | 11127 ft | 282 kts | 193° |
| 2026-04-20 21:13 | 55.92990 | -3.00414 | 11624 ft | 287 kts | 203° |
| 2026-04-20 21:13 | 55.91202 | -3.02049 | 12086 ft | 290 kts | 204° |
| 2026-04-20 21:14 | 55.89387 | -3.03681 | 12567 ft | 294 kts | 203° |
| 2026-04-20 21:14 | 55.87538 | -3.05286 | 13042 ft | 297 kts | 202° |
| 2026-04-20 21:14 | 55.85658 | -3.06867 | 13537 ft | 300 kts | 201° |
| 2026-04-20 21:14 | 55.83756 | -3.08434 | 14030 ft | 302 kts | 201° |
| 2026-04-20 21:15 | 55.81833 | -3.09994 | 14501 ft | 305 kts | 201° |
| 2026-04-20 21:15 | 55.79860 | -3.11577 | 14968 ft | 328 kts | 201° |
| 2026-04-20 21:15 | 55.77702 | -3.13297 | 15457 ft | 352 kts | 201° |
| 2026-04-20 21:15 | 55.75399 | -3.15125 | 15936 ft | 369 kts | 199° |
| 2026-04-20 21:16 | 55.72932 | -3.16305 | 16381 ft | 368 kts | 182° |
| 2026-04-20 21:16 | 55.70392 | -3.15951 | 16876 ft | 370 kts | 163° |
| 2026-04-20 21:16 | 55.67947 | -3.14394 | 17466 ft | 377 kts | 156° |
| 2026-04-20 21:16 | 55.65485 | -3.12664 | 18047 ft | 385 kts | 156° |
| 2026-04-20 21:17 | 55.62973 | -3.10917 | 18650 ft | 392 kts | 156° |
| 2026-04-20 21:17 | 55.60411 | -3.09162 | 19163 ft | 396 kts | 157° |
| 2026-04-20 21:17 | 55.57831 | -3.07421 | 19685 ft | 397 kts | 157° |
| 2026-04-20 21:17 | 55.55243 | -3.05687 | 20212 ft | 398 kts | 157° |
| 2026-04-20 21:18 | 55.52645 | -3.03953 | 20750 ft | 399 kts | 157° |
| 2026-04-20 21:18 | 55.50043 | -3.02221 | 21290 ft | 401 kts | 157° |
| 2026-04-20 21:18 | 55.47492 | -3.00126 | 21393 ft | 411 kts | 145° |
| 2026-04-20 21:18 | 55.45340 | -2.96811 | 21420 ft | 412 kts | 130° |
| 2026-04-20 21:19 | 55.43768 | -2.92684 | 21412 ft | 396 kts | 118° |
| 2026-04-20 21:19 | 55.42502 | -2.88510 | 21064 ft | 380 kts | 118° |
| 2026-04-20 21:19 | 55.41297 | -2.84554 | 20642 ft | 355 kts | 118° |
| 2026-04-20 21:20 | 55.39055 | -2.77362 | 19770 ft | 319 kts | 118° |
| 2026-04-20 21:20 | 55.37993 | -2.74014 | 19238 ft | 308 kts | 118° |
| 2026-04-20 21:20 | 55.37305 | -2.71857 | 18887 ft | 302 kts | 118° |
| 2026-04-20 21:20 | 55.35966 | -2.67664 | 18133 ft | 292 kts | 118° |
| 2026-04-20 21:21 | 55.34978 | -2.64593 | 17567 ft | 285 kts | 118° |
| 2026-04-20 21:21 | 55.34012 | -2.61594 | 16988 ft | 280 kts | 118° |
| 2026-04-20 21:21 | 55.33061 | -2.58646 | 16434 ft | 275 kts | 118° |
| 2026-04-20 21:21 | 55.32125 | -2.55744 | 15886 ft | 271 kts | 118° |
| 2026-04-20 21:22 | 55.31203 | -2.52886 | 15348 ft | 268 kts | 118° |
| 2026-04-20 21:22 | 55.30284 | -2.50046 | 14674 ft | 269 kts | 118° |
| 2026-04-20 21:22 | 55.29351 | -2.47164 | 13901 ft | 273 kts | 118° |
| 2026-04-20 21:22 | 55.28405 | -2.44255 | 13094 ft | 276 kts | 119° |
| 2026-04-20 21:23 | 55.27202 | -2.41611 | 12295 ft | 280 kts | 134° |
| 2026-04-20 21:23 | 55.25769 | -2.39299 | 11520 ft | 281 kts | 136° |
| 2026-04-20 21:23 | 55.24314 | -2.37015 | 10748 ft | 281 kts | 136° |
| 2026-04-20 21:23 | 55.22859 | -2.34732 | 9997 ft | 281 kts | 136° |
| 2026-04-20 21:24 | 55.21539 | -2.32605 | 9512 ft | 271 kts | 135° |